Time;durP1;ratioP1;P1;durP2;ratioP2;P2;SDS_P1;SDS_P2;PMS_P1;PMS_P2;Temp;Humidity;BMP_temperature;BMP_pressure;BME280_temperature;BME280_humidity;BME280_pressure;Samples;Min_cycle;Max_cycle;Signal;HPM_P1;HPM_P2
2023/11/07 00:02:23;;;;;;;10.30;3.22;;;;;;;8.78;100.00;97783.63;5081267;28;20032;-76
2023/11/07 00:04:50;;;;;;;12.68;2.47;;;;;;;8.75;100.00;97778.47;5071327;28;20495;-75
2023/11/07 00:07:17;;;;;;;13.43;3.72;;;;;;;8.73;100.00;97783.03;5070903;28;20457;-75
2023/11/07 00:09:43;;;;;;;7.80;3.63;;;;;;;8.68;100.00;97777.91;5066064;28;20067;-75
2023/11/07 00:12:09;;;;;;;18.67;3.55;;;;;;;8.74;100.00;97786.56;5067992;28;20072;-76
2023/11/07 00:14:35;;;;;;;9.10;2.90;;;;;;;8.68;100.00;97785.03;5065912;28;20028;-75
2023/11/07 00:17:01;;;;;;;6.95;2.90;;;;;;;8.69;100.00;97782.31;5070303;28;20032;-76
2023/11/07 00:19:27;;;;;;;8.00;3.05;;;;;;;8.74;100.00;97795.38;5077280;28;20064;-75
2023/11/07 00:21:52;;;;;;;8.73;2.90;;;;;;;8.58;100.00;97789.13;5084325;28;20420;-76
2023/11/07 00:24:18;;;;;;;7.07;3.20;;;;;;;8.52;100.00;97792.09;5075948;28;20056;-74
2023/11/07 00:26:53;;;;;;;6.15;2.70;;;;;;;8.48;100.00;97801.19;5085226;28;20093;-76
2023/11/07 00:29:23;;;;;;;8.82;2.83;;;;;;;8.48;100.00;97795.84;5067928;28;20446;-76
2023/11/07 00:31:50;;;;;;;5.53;3.47;;;;;;;8.44;100.00;97796.94;5080284;28;20032;-75
2023/11/07 00:34:16;;;;;;;5.97;2.47;;;;;;;8.38;100.00;97786.56;5083140;28;20038;-75
2023/11/07 00:36:43;;;;;;;6.15;2.42;;;;;;;8.34;100.00;97783.19;5081038;28;20024;-76
2023/11/07 00:39:09;;;;;;;9.35;2.50;;;;;;;8.32;100.00;97779.75;5065401;28;20024;-75
2023/11/07 00:41:34;;;;;;;5.60;2.33;;;;;;;8.39;100.00;97790.97;5059496;28;20089;-76
2023/11/07 00:44:01;;;;;;;6.78;2.72;;;;;;;8.30;100.00;97788.75;5076713;28;20430;-76
2023/11/07 00:46:27;;;;;;;7.20;2.67;;;;;;;8.33;100.00;97796.59;5092405;28;20035;-76
2023/11/07 00:48:53;;;;;;;12.90;2.65;;;;;;;8.25;100.00;97798.72;5093948;28;20024;-75
2023/11/07 00:51:18;;;;;;;6.60;2.78;;;;;;;8.23;100.00;97788.16;5088006;28;20445;-76
2023/11/07 00:53:44;;;;;;;9.70;3.13;;;;;;;8.29;100.00;97795.03;5079473;28;20040;-76
2023/11/07 00:56:10;;;;;;;7.68;2.95;;;;;;;8.39;100.00;97801.63;5082238;28;20115;-75
2023/11/07 00:58:35;;;;;;;8.93;2.90;;;;;;;8.36;100.00;97807.13;5059373;28;20055;-75
2023/11/07 01:01:01;;;;;;;8.07;2.75;;;;;;;8.28;100.00;97793.28;5083361;28;20059;-76
2023/11/07 01:03:27;;;;;;;11.02;3.08;;;;;;;8.25;100.00;97801.38;5092108;28;20492;-76
2023/11/07 01:05:53;;;;;;;7.85;3.50;;;;;;;8.27;100.00;97813.72;5083614;28;20024;-76
2023/11/07 01:08:19;;;;;;;5.45;2.50;;;;;;;8.25;100.00;97810.25;5085330;28;20025;-75
2023/11/07 01:10:45;;;;;;;12.40;3.03;;;;;;;8.22;100.00;97825.53;5060501;28;20387;-75
2023/11/07 01:13:11;;;;;;;5.28;2.80;;;;;;;8.24;100.00;97821.00;5073834;28;20031;-75
2023/11/07 01:15:37;;;;;;;8.00;3.00;;;;;;;8.21;100.00;97819.34;5060333;28;20044;-75
2023/11/07 01:18:04;;;;;;;6.68;2.72;;;;;;;8.00;100.00;97810.56;5085341;28;20112;-75
2023/11/07 01:20:32;;;;;;;9.55;2.78;;;;;;;8.13;100.00;97829.50;5091325;28;20053;-75
2023/11/07 01:22:57;;;;;;;7.38;2.92;;;;;;;8.00;100.00;97823.00;5077154;28;20035;-75
2023/11/07 01:25:23;;;;;;;8.93;3.33;;;;;;;8.04;100.00;97830.81;5082975;28;20031;-75
2023/11/07 01:27:49;;;;;;;9.18;2.83;;;;;;;8.02;100.00;97831.81;5077203;28;20035;-75
2023/11/07 01:30:14;;;;;;;6.05;2.60;;;;;;;7.99;100.00;97824.84;5082101;28;20103;-75
2023/11/07 01:32:42;;;;;;;9.05;2.60;;;;;;;7.92;100.00;97828.72;5086816;28;20043;-75
2023/11/07 01:35:09;;;;;;;5.20;3.08;;;;;;;7.89;100.00;97828.88;5071912;28;20063;-74
2023/11/07 01:37:35;;;;;;;5.35;2.85;;;;;;;7.87;100.00;97825.41;5076752;28;20458;-75
2023/11/07 01:40:01;;;;;;;7.70;3.10;;;;;;;7.83;100.00;97829.16;5076506;28;20028;-75
2023/11/07 01:42:27;;;;;;;6.82;3.30;;;;;;;7.80;100.00;97829.28;5067584;28;20038;-76
2023/11/07 01:44:52;;;;;;;9.57;2.90;;;;;;;7.78;100.00;97830.31;5082599;28;20063;-75
2023/11/07 01:47:19;;;;;;;11.27;3.35;;;;;;;7.78;100.00;97830.31;5060309;28;20035;-75
2023/11/07 01:49:47;;;;;;;10.77;3.40;;;;;;;7.78;100.00;97827.66;5078065;28;20028;-75
2023/11/07 01:52:16;;;;;;;6.47;3.30;;;;;;;7.75;100.00;97830.44;5082833;28;20476;-76
2023/11/07 01:54:44;;;;;;;12.65;4.03;;;;;;;7.74;100.00;97840.22;5085835;28;20081;-75
2023/11/07 01:57:11;;;;;;;9.23;3.42;;;;;;;7.58;100.00;97832.06;5077461;28;20025;-75
2023/11/07 01:59:37;;;;;;;6.68;2.85;;;;;;;7.63;100.00;97829.19;5057046;28;20027;-74
2023/11/07 02:02:06;;;;;;;8.80;3.22;;;;;;;7.59;100.00;97832.94;5064106;28;20043;-75
2023/11/07 02:04:33;;;;;;;7.57;3.05;;;;;;;7.62;100.00;97833.69;5078764;28;20471;-74
2023/11/07 02:06:58;;;;;;;10.18;3.38;;;;;;;7.56;100.00;97827.75;5084378;28;20128;-74
2023/11/07 02:09:24;;;;;;;12.90;3.33;;;;;;;7.62;100.00;97835.47;5082180;28;20491;-74
2023/11/07 02:11:50;;;;;;;10.80;3.22;;;;;;;7.66;100.00;97836.19;5073510;28;20028;-76
2023/11/07 02:14:28;;;;;;;15.93;3.30;;;;;;;7.61;100.00;97833.72;5062686;28;20044;-75
2023/11/07 02:16:54;;;;;;;6.93;3.63;;;;;;;7.56;100.00;97841.94;5069446;28;20028;-75
2023/11/07 02:19:20;;;;;;;9.10;3.42;;;;;;;7.51;100.00;97835.06;5084594;28;20112;-75
2023/11/07 02:21:46;;;;;;;6.80;2.80;;;;;;;7.56;100.00;97847.25;5091831;28;20032;-74
2023/11/07 02:24:11;;;;;;;12.20;2.88;;;;;;;7.58;100.00;97847.19;5063391;28;20043;-76
2023/11/07 02:26:37;;;;;;;8.95;3.20;;;;;;;7.59;100.00;97854.25;5059975;28;20474;-75
2023/11/07 02:29:03;;;;;;;8.70;3.35;;;;;;;7.61;100.00;97855.03;5071387;28;20032;-76
2023/11/07 02:31:29;;;;;;;6.63;3.30;;;;;;;7.52;100.00;97852.78;5060131;28;20028;-75
2023/11/07 02:33:54;;;;;;;8.70;3.15;;;;;;;7.49;100.00;97847.59;5061933;28;20506;-76
2023/11/07 02:36:20;;;;;;;6.88;3.10;;;;;;;7.46;100.00;97847.72;5074814;28;20015;-75
2023/11/07 02:38:46;;;;;;;8.98;3.08;;;;;;;7.47;100.00;97844.16;5083160;28;20040;-75
2023/11/07 02:41:11;;;;;;;13.55;3.88;;;;;;;7.46;100.00;97845.94;5076148;28;20025;-76
2023/11/07 02:43:37;;;;;;;13.38;5.68;;;;;;;7.48;100.00;97843.19;5079511;28;20404;-75
2023/11/07 02:46:02;;;;;;;9.90;4.30;;;;;;;7.42;100.00;97844.34;5055504;28;20035;-76
2023/11/07 02:48:28;;;;;;;13.65;3.97;;;;;;;7.38;100.00;97837.41;5078503;28;20029;-76
2023/11/07 02:50:55;;;;;;;16.23;4.90;;;;;;;7.38;100.00;97833.91;5062828;28;20479;-75
2023/11/07 02:53:20;;;;;;;15.50;4.80;;;;;;;7.37;100.00;97845.47;5065009;28;20125;-75
2023/11/07 02:55:46;;;;;;;20.55;4.22;;;;;;;7.39;100.00;97844.47;5090098;28;20118;-75
2023/11/07 02:58:13;;;;;;;11.15;4.70;;;;;;;7.44;100.00;97857.59;5062458;28;20027;-75
2023/11/07 03:00:39;;;;;;;12.95;4.68;;;;;;;7.44;100.00;97846.94;5072439;28;20024;-76
2023/11/07 03:03:05;;;;;;;12.20;4.65;;;;;;;7.44;100.00;97841.63;5061037;28;20029;-75
2023/11/07 03:05:30;;;;;;;15.18;4.18;;;;;;;7.53;100.00;97855.38;5078128;28;20024;-74
2023/11/07 03:07:57;;;;;;;10.15;4.60;;;;;;;7.46;100.00;97853.94;5069173;28;20558;-75
2023/11/07 03:10:23;;;;;;;12.10;4.45;;;;;;;7.48;100.00;97851.19;5061129;28;20039;-75
2023/11/07 03:12:49;;;;;;;15.82;6.25;;;;;;;7.50;100.00;97855.53;5069768;28;20068;-76
2023/11/07 03:15:15;;;;;;;14.30;5.22;;;;;;;7.46;100.00;97864.56;5062865;28;20086;-76
2023/11/07 03:17:41;;;;;;;17.60;7.20;;;;;;;7.41;100.00;97865.72;5064920;28;20462;-76
2023/11/07 03:20:08;;;;;;;27.50;9.07;;;;;;;7.30;100.00;97852.88;5078493;28;20093;-76
2023/11/07 03:22:34;;;;;;;35.75;11.15;;;;;;;7.32;100.00;97866.13;5060503;28;20078;-75
2023/11/07 03:25:01;;;;;;;47.05;11.20;;;;;;;7.24;100.00;97865.56;5064805;28;20074;-76
2023/11/07 03:27:26;;;;;;;26.10;5.72;;;;;;;6.95;100.00;97858.88;5085176;28;20030;-76
2023/11/07 03:29:52;;;;;;;35.47;9.90;;;;;;;6.89;100.00;97869.75;5082562;28;20411;-76
2023/11/07 03:32:18;;;;;;;24.27;8.18;;;;;;;6.69;100.00;97859.06;5059236;28;20074;-75
2023/11/07 03:34:43;;;;;;;19.58;7.85;;;;;;;6.66;100.00;97862.72;5085839;28;20017;-75
2023/11/07 03:37:09;;;;;;;40.95;16.80;;;;;;;6.68;100.00;97866.19;5093582;28;20032;-76
2023/11/07 03:39:35;;;;;;;19.60;6.78;;;;;;;6.59;100.00;97861.25;5073798;28;20032;-75
2023/11/07 03:42:00;;;;;;;25.55;11.68;;;;;;;6.63;100.00;97860.22;5088869;28;20054;-75
2023/11/07 03:44:26;;;;;;;15.02;4.70;;;;;;;6.61;100.00;97870.03;5067506;28;20032;-75
2023/11/07 03:46:52;;;;;;;14.23;4.38;;;;;;;6.62;100.00;97877.06;5067448;28;20040;-75
2023/11/07 03:49:18;;;;;;;22.88;10.45;;;;;;;6.68;100.00;97881.25;5060851;28;20028;-75
2023/11/07 03:51:45;;;;;;;12.25;4.80;;;;;;;6.59;100.00;97873.66;5070596;28;20400;-74
2023/11/07 03:54:11;;;;;;;11.00;4.60;;;;;;;6.64;100.00;97867.25;5090483;28;20017;-76
2023/11/07 03:56:37;;;;;;;13.02;4.13;;;;;;;6.62;100.00;97877.06;5080349;28;20031;-75
2023/11/07 03:59:03;;;;;;;13.13;5.00;;;;;;;6.61;100.00;97877.16;5068896;28;20093;-74
2023/11/07 04:01:36;;;;;;;12.07;4.80;;;;;;;6.62;100.00;97876.19;5056376;28;20109;-75
2023/11/07 04:04:02;;;;;;;16.48;5.20;;;;;;;6.76;100.00;97881.84;5061968;28;20423;-76
2023/11/07 04:06:28;;;;;;;8.95;4.60;;;;;;;6.74;100.00;97892.50;5088018;28;20413;-76
2023/11/07 04:08:54;;;;;;;9.13;4.55;;;;;;;6.72;100.00;97893.50;5092540;28;20122;-75
2023/11/07 04:11:19;;;;;;;17.00;4.93;;;;;;;6.79;100.00;97887.88;5080679;28;20396;-75
2023/11/07 04:13:48;;;;;;;14.32;4.68;;;;;;;6.78;100.00;97888.81;5082464;28;20159;-75
2023/11/07 04:16:13;;;;;;;15.88;5.20;;;;;;;6.77;100.00;97892.38;5081722;28;20032;-75
2023/11/07 04:18:39;;;;;;;32.85;11.02;;;;;;;6.76;100.00;97890.69;5086404;28;20356;-77
2023/11/07 04:21:07;;;;;;;94.25;29.70;;;;;;;6.75;100.00;97893.38;5087995;28;20032;-74
2023/11/07 04:23:33;;;;;;;66.22;22.52;;;;;;;6.71;100.00;97889.97;5092858;28;20046;-74
2023/11/07 04:25:59;;;;;;;19.30;8.88;;;;;;;6.63;100.00;97889.44;5086783;28;20020;-74
2023/11/07 04:28:26;;;;;;;12.50;4.68;;;;;;;6.57;100.00;97892.34;5083147;28;20081;-75
2023/11/07 04:30:55;;;;;;;9.95;4.85;;;;;;;6.48;100.00;97906.00;5076238;28;20513;-76
2023/11/07 04:33:21;;;;;;;17.30;5.57;;;;;;;6.46;100.00;97891.94;5092396;28;20501;-76
2023/11/07 04:35:47;;;;;;;33.97;8.48;;;;;;;6.50;100.00;97898.81;5071336;28;20028;-75
2023/11/07 04:38:13;;;;;;;18.40;6.68;;;;;;;6.50;100.00;97893.50;5075765;28;20449;-77
2023/11/07 04:40:40;;;;;;;46.60;22.98;;;;;;;6.47;100.00;97902.47;5092462;28;20031;-76
2023/11/07 04:43:07;;;;;;;20.52;6.18;;;;;;;6.39;100.00;97895.75;5059262;28;20038;-74
2023/11/07 04:45:33;;;;;;;19.27;6.32;;;;;;;6.48;100.00;97890.06;5068192;28;20109;-75
2023/11/07 04:47:59;;;;;;;15.25;4.15;;;;;;;6.49;100.00;97903.28;5055188;28;20028;-74
2023/11/07 04:50:26;;;;;;;13.35;4.28;;;;;;;6.44;100.00;97899.94;5061169;28;20538;-75
2023/11/07 04:52:54;;;;;;;8.38;3.45;;;;;;;6.35;100.00;97902.97;5060698;28;20036;-76
2023/11/07 04:55:26;;;;;;;15.18;5.35;;;;;;;6.39;100.00;97901.94;5075112;28;20500;-76
2023/11/07 05:01:33;;;;;;;16.80;7.82;;;;;;;5.98;100.00;97834.50;5031165;28;20120;-75
2023/11/07 05:04:14;;;;;;;;;;;;;;;;;;;;;
2023/11/07 05:06:42;;;;;;;19.77;6.32;;;;;;;6.22;100.00;97864.53;5069012;28;20044;-76
2023/11/07 05:09:09;;;;;;;14.98;6.55;;;;;;;6.48;100.00;97890.06;5055531;28;20025;-78
2023/11/07 05:11:39;;;;;;;22.20;6.88;;;;;;;6.32;100.00;97868.56;5090983;28;20065;-75
2023/11/07 05:14:05;;;;;;;22.13;6.93;;;;;;;6.35;100.00;97891.47;5083142;28;20022;-75
2023/11/07 05:16:31;;;;;;;20.95;6.90;;;;;;;6.47;100.00;97899.81;5090993;28;20552;-77
2023/11/07 05:18:57;;;;;;;21.88;7.90;;;;;;;6.54;100.00;97917.25;5061969;28;20036;-75
2023/11/07 05:21:22;;;;;;;24.45;8.07;;;;;;;6.45;100.00;97903.47;5070037;28;20482;-75
2023/11/07 05:23:48;;;;;;;26.33;8.75;;;;;;;6.62;100.00;97924.91;5086342;28;20037;-75
2023/11/07 05:26:14;;;;;;;16.83;8.13;;;;;;;6.60;100.00;97916.13;5061328;28;20107;-75
2023/11/07 05:28:39;;;;;;;23.98;8.95;;;;;;;6.65;100.00;97930.09;5066653;28;20035;-75
2023/11/07 05:31:14;;;;;;;25.60;8.02;;;;;;;6.72;100.00;97923.63;5076247;28;20032;-72
2023/11/07 05:33:41;;;;;;;34.65;13.32;;;;;;;6.86;100.00;97931.03;5068471;28;20501;-72
2023/11/07 05:36:07;;;;;;;36.22;15.55;;;;;;;6.91;100.00;97937.03;5070319;28;20059;-71
2023/11/07 05:38:34;;;;;;;36.00;14.13;;;;;;;6.86;100.00;97929.22;5070782;28;20028;-72
2023/11/07 05:40:59;;;;;;;34.70;14.90;;;;;;;6.82;100.00;97922.31;5070754;28;20027;-72
2023/11/07 05:43:25;;;;;;;36.63;14.45;;;;;;;6.90;100.00;97928.19;5069782;28;20368;-72
2023/11/07 05:45:51;;;;;;;34.35;12.52;;;;;;;7.06;100.00;97933.72;5070109;28;20111;-72
2023/11/07 05:48:17;;;;;;;23.95;12.70;;;;;;;7.04;100.00;97933.78;5051426;28;20321;-72
2023/11/07 05:50:42;;;;;;;41.13;18.13;;;;;;;7.19;100.00;97936.75;5055271;28;20066;-72
2023/11/07 05:53:08;;;;;;;40.03;16.30;;;;;;;7.24;100.00;97929.41;5088340;28;20031;-73
2023/11/07 05:55:35;;;;;;;28.05;12.57;;;;;;;7.37;100.00;97952.78;5090290;28;20028;-72
2023/11/07 05:58:00;;;;;;;31.73;13.75;;;;;;;7.47;100.00;97953.25;5089149;28;20039;-73
2023/11/07 06:00:26;;;;;;;32.40;15.95;;;;;;;7.54;100.00;97952.91;5089267;28;20036;-72
2023/11/07 06:02:52;;;;;;;37.70;15.27;;;;;;;7.65;100.00;97952.47;5073206;28;20035;-73
2023/11/07 06:05:20;;;;;;;30.02;13.77;;;;;;;7.93;100.00;97966.28;5090144;28;20032;-73
2023/11/07 06:07:46;;;;;;;25.95;12.60;;;;;;;9.04;100.00;97953.06;5089928;28;20032;-72
2023/11/07 06:10:11;;;;;;;29.10;12.50;;;;;;;10.50;100.00;97960.50;5090268;28;20020;-72
2023/11/07 06:12:37;;;;;;;23.48;10.75;;;;;;;11.92;100.00;97943.28;5091182;28;20020;-73
2023/11/07 06:15:03;;;;;;;20.92;10.30;;;;;;;13.28;100.00;97917.53;5067550;28;20025;-73
2023/11/07 06:17:29;;;;;;;33.10;11.15;;;;;;;14.23;100.00;97927.03;5069454;28;20489;-72
2023/11/07 06:19:54;;;;;;;28.27;10.85;;;;;;;15.30;100.00;97915.59;5069482;28;20040;-73
2023/11/07 06:22:21;;;;;;;29.55;11.10;;;;;;;16.18;100.00;97909.63;5070998;28;20028;-73
2023/11/07 06:24:48;;;;;;;21.83;9.15;;;;;;;16.68;100.00;97910.19;5081636;28;20117;-72
2023/11/07 06:27:13;;;;;;;20.42;8.68;;;;;;;17.13;98.22;97911.00;5091318;28;20035;-72
2023/11/07 06:29:42;;;;;;;20.63;7.85;;;;;;;17.43;92.92;97899.47;5090872;28;20116;-72
2023/11/07 06:32:09;;;;;;;17.15;8.30;;;;;;;17.99;88.09;97902.81;5090178;28;20499;-73
2023/11/07 06:34:35;;;;;;;23.20;8.93;;;;;;;17.99;84.63;97909.06;5090957;28;20032;-72
2023/11/07 06:37:03;;;;;;;26.17;10.10;;;;;;;17.64;92.70;97914.78;5091072;28;20111;-73
2023/11/07 06:39:29;;;;;;;22.30;11.63;;;;;;;17.81;90.15;97921.47;5090638;28;20028;-73
2023/11/07 06:41:55;;;;;;;58.65;16.35;;;;;;;17.97;87.87;97916.44;5089646;28;20042;-73
2023/11/07 06:44:24;;;;;;;25.00;13.57;;;;;;;17.48;88.42;97911.59;5072725;28;20032;-73
2023/11/07 06:46:51;;;;;;;33.20;13.95;;;;;;;17.46;89.61;97915.44;5072386;28;20123;-73
2023/11/07 06:49:17;;;;;;;28.58;13.65;;;;;;;17.59;89.83;97921.56;5091066;28;20024;-72
2023/11/07 06:51:43;;;;;;;25.63;10.75;;;;;;;17.48;90.45;97930.53;5088890;28;20028;-72
2023/11/07 06:54:09;;;;;;;29.05;10.20;;;;;;;17.73;86.58;97924.81;5072862;28;20024;-73
2023/11/07 06:56:35;;;;;;;21.23;8.52;;;;;;;18.05;83.49;97932.03;5072689;28;20472;-73
2023/11/07 06:59:00;;;;;;;19.25;8.27;;;;;;;18.40;81.96;97927.13;5088643;28;20115;-72
2023/11/07 07:01:28;;;;;;;34.30;8.88;;;;;;;18.52;78.47;97922.53;5089255;28;20032;-72
2023/11/07 07:03:54;;;;;;;26.05;10.95;;;;;;;18.76;80.11;97921.22;5090488;28;20032;-73
2023/11/07 07:06:21;;;;;;;22.50;8.57;;;;;;;19.30;74.30;97912.66;5072797;28;20036;-73
2023/11/07 07:08:47;;;;;;;18.92;8.13;;;;;;;20.27;68.90;97914.41;5089516;28;20032;-72
2023/11/07 07:11:13;;;;;;;18.33;7.22;;;;;;;20.49;65.15;97907.78;5089402;28;20107;-74
2023/11/07 07:13:39;;;;;;;15.50;7.60;;;;;;;20.96;63.58;97898.59;5072553;28;20352;-73
2023/11/07 07:16:07;;;;;;;16.42;6.88;;;;;;;21.14;63.22;97900.50;5088989;28;20036;-73
2023/11/07 07:18:39;;;;;;;13.23;6.57;;;;;;;21.27;61.54;97901.00;5056162;28;20051;-73
2023/11/07 07:21:09;;;;;;;23.25;7.82;;;;;;;21.55;60.23;97900.81;5090148;28;20105;-74
2023/11/07 07:23:36;;;;;;;19.95;7.05;;;;;;;21.82;59.00;97897.16;5090374;28;20039;-74
2023/11/07 07:26:09;;;;;;;19.20;7.97;;;;;;;22.05;58.06;97909.34;5071886;28;20039;-74
2023/11/07 07:28:38;;;;;;;16.45;7.10;;;;;;;22.26;56.91;97906.25;5089161;28;20035;-73
2023/11/07 07:31:06;;;;;;;17.83;7.63;;;;;;;22.68;55.97;97917.28;5090048;28;20088;-73
2023/11/07 07:33:35;;;;;;;18.95;7.07;;;;;;;22.78;54.37;97917.19;5090318;28;20051;-73
2023/11/07 07:36:04;;;;;;;20.92;9.02;;;;;;;22.80;54.87;97910.53;5078862;28;20036;-73
2023/11/07 07:38:31;;;;;;;18.63;7.10;;;;;;;22.12;55.80;97917.72;5052407;28;20067;-73
2023/11/07 07:40:59;;;;;;;16.50;7.60;;;;;;;22.54;55.61;97920.59;5068764;28;20032;-74
2023/11/07 07:43:26;;;;;;;21.35;8.05;;;;;;;22.81;55.08;97920.44;5052379;28;20025;-73
2023/11/07 07:45:53;;;;;;;15.15;6.95;;;;;;;23.10;54.05;97925.56;5068843;28;20032;-73
2023/11/07 07:48:19;;;;;;;25.10;9.05;;;;;;;22.92;53.89;97925.63;5051821;28;20024;-72
2023/11/07 07:50:46;;;;;;;24.38;9.73;;;;;;;23.37;53.71;97914.38;5070287;28;20024;-73
2023/11/07 07:53:15;;;;;;;34.05;9.63;;;;;;;23.44;52.35;97909.16;5068880;28;20025;-74
2023/11/07 07:55:44;;;;;;;31.63;9.68;;;;;;;23.57;52.48;97920.44;5070196;28;20047;-73
2023/11/07 07:58:11;;;;;;;22.35;9.30;;;;;;;23.11;52.65;97903.53;5069865;28;20040;-72
2023/11/07 08:00:37;;;;;;;24.33;9.48;;;;;;;23.57;52.39;97896.72;5068285;28;20035;-73
2023/11/07 08:03:11;;;;;;;21.50;7.63;;;;;;;24.13;50.04;97889.63;5068627;28;20033;-72
2023/11/07 08:05:39;;;;;;;19.17;6.63;;;;;;;24.21;49.64;97884.13;5068512;28;20042;-72
2023/11/07 08:08:08;;;;;;;19.73;7.57;;;;;;;24.21;50.89;97884.13;5068265;28;20032;-72
2023/11/07 08:10:35;;;;;;;36.35;10.00;;;;;;;23.96;50.91;97879.69;5071637;28;20032;-73
2023/11/07 08:13:02;;;;;;;41.50;11.75;;;;;;;24.04;52.57;97886.00;5072176;28;20077;-72
2023/11/07 08:15:30;;;;;;;20.60;8.43;;;;;;;24.53;49.92;97881.38;5071914;28;20034;-73
2023/11/07 08:17:56;;;;;;;33.70;8.82;;;;;;;25.16;48.66;97877.78;5072098;28;20032;-73
2023/11/07 08:20:23;;;;;;;24.05;10.57;;;;;;;24.72;50.36;97888.34;5071426;28;20044;-73
2023/11/07 08:22:51;;;;;;;22.80;8.93;;;;;;;25.07;49.56;97874.22;5073045;28;20052;-72
2023/11/07 08:25:17;;;;;;;21.60;8.32;;;;;;;24.91;49.97;97873.44;5071733;28;20038;-73
2023/11/07 08:27:48;;;;;;;38.13;10.20;;;;;;;25.66;48.61;97880.09;5071668;28;20024;-73
2023/11/07 08:30:20;;;;;;;22.17;7.10;;;;;;;25.79;47.91;97875.72;5072896;28;20082;-73
2023/11/07 08:32:46;;;;;;;36.15;10.48;;;;;;;25.64;48.42;97871.19;5071823;28;20032;-73
2023/11/07 08:35:15;;;;;;;20.40;7.45;;;;;;;26.47;47.61;97876.72;5071727;28;20029;-73
2023/11/07 08:37:49;;;;;;;20.35;6.55;;;;;;;26.96;46.21;97858.69;5085047;28;20039;-72
2023/11/07 08:40:17;;;;;;;22.65;7.88;;;;;;;27.27;45.03;97855.72;5093082;28;20019;-73
2023/11/07 08:42:43;;;;;;;21.55;7.40;;;;;;;27.78;44.12;97853.84;5091554;28;20484;-73
2023/11/07 08:45:15;;;;;;;23.95;8.68;;;;;;;28.63;43.06;97857.38;5091549;28;20452;-73
2023/11/07 08:47:50;;;;;;;25.40;8.98;;;;;;;29.07;42.10;97851.53;5091465;28;20031;-73
2023/11/07 08:50:18;;;;;;;23.63;8.98;;;;;;;29.18;41.77;97839.91;5076151;28;20036;-73
2023/11/07 08:52:44;;;;;;;19.50;7.93;;;;;;;30.20;40.33;97837.06;5071195;28;20037;-73
2023/11/07 08:55:13;;;;;;;18.08;7.75;;;;;;;30.96;38.50;97836.41;5071250;28;20028;-73
2023/11/07 08:57:39;;;;;;;30.67;11.75;;;;;;;31.35;37.22;97832.66;5072149;28;20419;-74
2023/11/07 09:00:09;;;;;;;24.70;9.98;;;;;;;32.07;36.62;97831.44;5072400;28;20094;-74
2023/11/07 09:02:36;;;;;;;22.27;6.70;;;;;;;32.33;34.68;97817.41;5070672;28;20453;-74
2023/11/07 09:05:03;;;;;;;22.73;6.40;;;;;;;32.69;34.65;97823.06;5071182;28;20032;-72
2023/11/07 09:07:29;;;;;;;16.65;6.40;;;;;;;32.70;33.22;97821.16;5070926;28;20052;-73
2023/11/07 09:09:55;;;;;;;18.20;6.45;;;;;;;33.41;32.77;97813.09;5071041;28;20028;-72
2023/11/07 09:12:21;;;;;;;18.90;6.97;;;;;;;33.47;32.70;97816.88;5072086;28;20024;-73
2023/11/07 09:14:47;;;;;;;16.58;6.00;;;;;;;33.41;31.60;97810.31;5070772;28;20028;-73
2023/11/07 09:17:13;;;;;;;16.38;4.20;;;;;;;33.67;29.83;97798.91;5054396;28;20131;-73
2023/11/07 09:19:41;;;;;;;15.65;4.20;;;;;;;33.86;28.74;97787.72;5070333;28;20083;-72
2023/11/07 09:22:07;;;;;;;16.48;5.05;;;;;;;34.27;29.11;97788.56;5053430;28;20032;-73
2023/11/07 09:24:33;;;;;;;11.23;3.22;;;;;;;33.77;28.96;97779.75;5071818;28;20526;-73
2023/11/07 09:26:59;;;;;;;7.57;2.35;;;;;;;33.66;28.76;97776.91;5070639;28;20048;-73
2023/11/07 09:29:24;;;;;;;7.00;1.70;;;;;;;33.62;27.74;97764.59;5054055;28;20113;-74
2023/11/07 09:31:52;;;;;;;7.43;2.25;;;;;;;34.26;27.87;97773.00;5070624;28;20039;-72
2023/11/07 09:34:20;;;;;;;7.65;2.15;;;;;;;34.23;27.04;97769.84;5070736;28;20024;-73
2023/11/07 09:36:47;;;;;;;16.00;6.38;;;;;;;33.39;28.50;97758.91;5072182;28;20442;-73
2023/11/07 09:39:12;;;;;;;5.93;1.77;;;;;;;33.71;27.59;97766.81;5085582;28;20028;-73
2023/11/07 09:41:41;;;;;;;6.30;2.10;;;;;;;33.05;27.74;97757.63;5084116;28;20407;-72
2023/11/07 09:44:10;;;;;;;8.10;1.95;;;;;;;32.65;28.17;97741.44;5070581;28;20079;-73
2023/11/07 09:46:37;;;;;;;9.00;2.47;;;;;;;33.91;27.17;97746.22;5070362;28;20025;-73
2023/11/07 09:49:03;;;;;;;6.63;2.30;;;;;;;33.86;27.73;97743.31;5071506;28;20503;-72
2023/11/07 09:51:30;;;;;;;6.57;2.30;;;;;;;33.06;27.42;97742.69;5071257;28;20024;-73
2023/11/07 09:53:58;;;;;;;26.40;10.85;;;;;;;31.78;29.21;97740.72;5069978;28;20100;-73
2023/11/07 09:56:25;;;;;;;12.10;2.28;;;;;;;31.72;29.49;97738.84;5079860;28;20036;-73
2023/11/07 09:58:51;;;;;;;7.53;1.58;;;;;;;32.76;28.06;97728.78;5071243;28;20043;-73
2023/11/07 10:01:17;;;;;;;5.18;1.77;;;;;;;33.12;27.79;97736.25;5070340;28;20055;-73
2023/11/07 10:03:48;;;;;;;10.80;1.77;;;;;;;32.15;29.41;97737.88;5069735;28;20480;-72
2023/11/07 10:06:13;;;;;;;7.23;1.70;;;;;;;31.89;29.42;97728.91;5069835;28;20028;-73
2023/11/07 10:08:42;;;;;;;4.43;1.52;;;;;;;32.43;28.47;97725.44;5069779;28;20039;-74
2023/11/07 10:11:11;;;;;;;4.32;1.20;;;;;;;30.54;30.04;97718.97;5069855;28;20027;-74
2023/11/07 10:13:37;;;;;;;9.27;1.73;;;;;;;31.74;29.67;97712.66;5052877;28;20403;-73
2023/11/07 10:16:06;;;;;;;4.75;1.73;;;;;;;32.69;28.89;97709.44;5069613;28;20039;-73
2023/11/07 10:18:52;;;;;;;8.40;1.83;;;;;;;32.90;27.77;97704.50;5069716;28;20020;-72
2023/11/07 10:21:34;;;;;;;6.65;1.75;;;;;;;31.84;29.27;97710.22;5070445;28;20048;-72
2023/11/07 10:24:00;;;;;;;5.18;1.50;;;;;;;31.57;29.40;97701.28;5070575;28;20111;-72
2023/11/07 10:26:26;;;;;;;9.38;1.60;;;;;;;30.54;29.97;97685.81;5052765;28;20569;-73
2023/11/07 10:29:15;;;;;;;5.75;1.55;;;;;;;29.95;30.71;97702.47;5069343;28;20104;-72
2023/11/07 10:31:43;;;;;;;4.38;1.65;;;;;;;29.89;31.40;97696.94;5069437;28;20055;-72
2023/11/07 10:34:13;;;;;;;13.02;2.08;;;;;;;30.58;30.95;97692.59;5069267;28;20047;-72
2023/11/07 10:36:45;;;;;;;5.60;1.60;;;;;;;31.05;29.61;97680.31;5069349;28;20502;-72
2023/11/07 10:39:16;;;;;;;3.30;1.50;;;;;;;29.92;31.50;97694.63;5069321;28;20089;-72
2023/11/07 10:41:44;;;;;;;8.90;1.67;;;;;;;29.54;32.07;97680.56;5052622;28;20024;-71
2023/11/07 10:44:28;;;;;;;14.20;2.10;;;;;;;30.70;32.55;97680.88;5070299;28;20062;-73
2023/11/07 10:46:58;;;;;;;26.45;3.22;;;;;;;31.65;30.17;97673.34;5087812;28;20020;-73
2023/11/07 10:49:25;;;;;;;8.65;2.40;;;;;;;31.44;30.31;97659.84;5089902;28;20507;-73
2023/11/07 10:51:52;;;;;;;7.88;2.05;;;;;;;32.05;29.44;97657.25;5089627;28;20058;-73
2023/11/07 10:54:21;;;;;;;7.70;1.73;;;;;;;32.61;29.12;97659.00;5072702;28;20476;-74
2023/11/07 10:56:49;;;;;;;4.88;1.67;;;;;;;32.89;29.11;97655.66;5089402;28;20252;-74
2023/11/07 10:59:20;;;;;;;9.32;2.10;;;;;;;33.77;27.42;97646.50;5090665;28;20031;-74
2023/11/07 11:01:46;;;;;;;20.15;3.47;;;;;;;34.15;27.80;97637.72;5089552;28;20328;-73
2023/11/07 11:04:13;;;;;;;9.25;2.63;;;;;;;34.31;27.91;97636.13;5089428;28;20046;-73
2023/11/07 11:06:52;;;;;;;13.23;3.95;;;;;;;34.49;27.16;97610.09;5089517;28;20051;-74
2023/11/07 11:09:19;;;;;;;6.50;1.83;;;;;;;33.38;27.11;97618.53;5068701;28;20032;-74
2023/11/07 11:11:48;;;;;;;7.60;1.60;;;;;;;31.94;28.03;97626.66;5069477;28;20028;-74
2023/11/07 11:14:14;;;;;;;5.13;1.60;;;;;;;31.09;28.54;97622.66;5068967;28;20460;-74
2023/11/07 11:16:41;;;;;;;4.20;1.30;;;;;;;30.49;29.29;97610.19;5052410;28;20071;-74
2023/11/07 11:19:09;;;;;;;6.75;1.75;;;;;;;29.67;30.19;97637.50;5068747;28;20496;-73
2023/11/07 11:22:07;;;;;;;3.88;1.25;;;;;;;29.90;30.13;97624.16;5068787;28;20081;-73
2023/11/07 11:24:49;;;;;;;6.97;1.63;;;;;;;30.70;29.80;97622.88;5068887;28;20021;-73
2023/11/07 11:27:30;;;;;;;3.30;1.38;;;;;;;31.22;29.46;97632.78;5070494;28;20476;-74
2023/11/07 11:29:56;;;;;;;13.88;1.52;;;;;;;31.68;28.58;97609.25;5070432;28;20415;-73
2023/11/07 11:32:26;;;;;;;3.47;1.27;;;;;;;32.25;27.45;97611.88;5068716;28;20025;-74